Time;durP1;ratioP1;P1;durP2;ratioP2;P2;SDS_P1;SDS_P2;PMS_P1;PMS_P2;Temp;Humidity;BMP_temperature;BMP_pressure;BME280_temperature;BME280_humidity;BME280_pressure;Samples;Min_cycle;Max_cycle;Signal;HPM_P1;HPM_P2
2022/12/28 00:02:18;;;;;;;;;12.00;11.00;;;;;9.42;46.31;99685.50;6188928;27;96844;-66
2022/12/28 00:05:22;;;;;;;;;11.00;10.60;;;;;9.42;46.17;99685.50;6187166;27;96244;-66
2022/12/28 00:08:25;;;;;;;;;12.00;10.50;;;;;9.41;46.33;99681.16;6192830;27;96897;-66
2022/12/28 00:11:30;;;;;;;;;8.00;7.00;;;;;9.42;46.22;99696.28;6188507;27;96853;-66
2022/12/28 00:14:33;;;;;;;;;14.00;13.00;;;;;9.45;46.32;99685.94;6234348;27;97496;-66
2022/12/28 00:17:37;;;;;;;;;13.00;12.25;;;;;9.41;46.17;99687.38;6170431;27;97692;-66
2022/12/28 00:20:40;;;;;;;;;11.00;11.00;;;;;9.39;46.40;99692.09;6258299;27;96610;-66
2022/12/28 00:23:44;;;;;;;;;10.50;9.75;;;;;9.39;46.49;99691.28;6216807;27;96732;-66
2022/12/28 00:26:49;;;;;;;;;10.80;9.80;;;;;9.34;46.58;99686.47;6231802;27;96384;-66
2022/12/28 00:29:52;;;;;;;;;10.50;10.00;;;;;9.35;46.47;99688.13;6224723;27;96268;-66
2022/12/28 00:32:57;;;;;;;;;12.00;11.00;;;;;9.34;46.48;99681.09;6192084;27;96479;-60
2022/12/28 00:36:01;;;;;;;;;12.00;11.40;;;;;9.35;46.43;99682.75;6177891;27;98855;-62
2022/12/28 00:39:05;;;;;;;;;12.00;12.00;;;;;9.32;46.53;99685.84;6193101;27;96530;-61
2022/12/28 00:42:11;;;;;;;;;12.00;12.00;;;;;9.30;46.54;99682.50;6219368;27;96590;-63
2022/12/28 00:45:14;;;;;;;;;12.00;10.00;;;;;9.24;46.49;99679.75;6198466;27;96998;-62
2022/12/28 00:48:19;;;;;;;;;11.20;10.60;;;;;9.26;46.74;99683.94;6277435;27;96198;-61
2022/12/28 00:51:22;;;;;;;;;14.50;13.00;;;;;9.25;47.00;99692.19;6212323;27;96120;-61
2022/12/28 00:54:26;;;;;;;;;13.00;12.00;;;;;9.21;47.03;99691.75;6258094;27;96930;-62
2022/12/28 00:57:30;;;;;;;;;11.75;11.00;;;;;9.23;46.83;99697.78;6237198;27;96445;-61
2022/12/28 01:00:35;;;;;;;;;12.00;10.00;;;;;9.22;46.78;99701.50;6230143;27;96605;-61
2022/12/28 01:03:39;;;;;;;;;11.00;10.00;;;;;9.23;46.61;99703.16;6215308;27;98395;-61
2022/12/28 01:06:43;;;;;;;;;12.60;12.00;;;;;9.25;46.56;99693.03;6252674;27;96382;-61
2022/12/28 01:09:46;;;;;;;;;15.00;14.00;;;;;9.23;46.50;99696.94;6233243;27;96389;-61
2022/12/28 01:12:51;;;;;;;;;13.25;11.75;;;;;9.13;46.68;99694.56;6190022;27;97280;-60
2022/12/28 01:15:54;;;;;;;;;15.00;13.50;;;;;9.05;47.05;99702.75;6238961;27;96316;-62
2022/12/28 01:18:59;;;;;;;;;13.00;12.20;;;;;9.00;47.01;99697.13;6247806;27;96910;-61
2022/12/28 01:22:03;;;;;;;;;12.80;12.00;;;;;8.95;46.88;99697.69;6233582;27;96399;-61
2022/12/28 01:25:07;;;;;;;;;13.00;13.00;;;;;8.91;46.98;99696.41;6253133;27;96624;-61
2022/12/28 01:28:14;;;;;;;;;15.00;14.00;;;;;8.93;46.82;99696.25;6277106;27;96441;-61
2022/12/28 01:31:19;;;;;;;;;13.75;12.25;;;;;8.97;46.80;99700.22;6190451;28;97060;-62
2022/12/28 01:34:22;;;;;;;;;13.20;12.20;;;;;8.94;46.61;99696.03;6225741;27;96765;-61
2022/12/28 01:37:26;;;;;;;;;14.20;13.20;;;;;8.93;46.82;99686.31;6273474;27;97551;-62
2022/12/28 01:40:29;;;;;;;;;11.00;9.60;;;;;8.87;46.94;99687.06;6196453;27;96749;-61
2022/12/28 01:43:40;;;;;;;;;14.00;13.00;;;;;8.94;46.76;99684.47;6273784;27;97089;-61
2022/12/28 01:46:48;;;;;;;;;13.00;13.00;;;;;8.94;46.77;99674.50;6193666;27;96651;-60
2022/12/28 01:49:59;;;;;;;;;13.40;12.40;;;;;8.95;46.64;99680.72;6282793;27;96694;-62
2022/12/28 01:53:05;;;;;;;;;13.00;12.00;;;;;8.96;46.69;99687.78;6252016;27;96279;-61
2022/12/28 01:56:09;;;;;;;;;14.00;11.20;;;;;8.96;46.72;99677.00;6210119;27;96415;-62
2022/12/28 01:59:17;;;;;;;;;13.00;11.00;;;;;8.87;46.80;99672.78;6253299;27;96173;-61
2022/12/28 02:02:22;;;;;;;;;12.00;11.40;;;;;8.90;46.92;99669.72;6277251;27;96320;-60
2022/12/28 02:05:32;;;;;;;;;12.80;12.80;;;;;8.90;46.85;99670.53;6270482;27;96806;-62
2022/12/28 02:08:41;;;;;;;;;15.00;14.00;;;;;8.92;46.64;99664.97;6249453;27;96395;-60
2022/12/28 02:11:44;;;;;;;;;13.40;12.40;;;;;8.90;46.69;99661.63;6281811;27;99826;-61
2022/12/28 02:14:49;;;;;;;;;11.60;11.00;;;;;8.76;46.53;99641.88;6183249;27;96783;-61
2022/12/28 02:17:53;;;;;;;;;13.75;13.75;;;;;8.74;46.61;99643.94;6275509;27;96221;-61
2022/12/28 02:21:17;;;;;;;;;14.00;12.50;;;;;8.72;46.62;99645.13;6246242;27;96279;-63
2022/12/28 02:24:53;;;;;;;;;12.00;12.00;;;;;8.68;46.72;99645.53;6231467;27;96823;-61
2022/12/28 02:28:32;;;;;;;;;13.00;12.00;;;;;8.58;46.76;99639.63;6204711;27;96964;-60
2022/12/28 02:31:44;;;;;;;;;9.80;9.80;;;;;8.49;46.86;99651.53;6276518;27;96419;-61
2022/12/28 02:34:56;;;;;;;;;12.00;12.00;;;;;8.47;46.69;99642.81;6187056;28;98717;-61
2022/12/28 02:38:04;;;;;;;;;12.20;10.60;;;;;8.41;46.72;99654.31;6243400;27;96327;-61
2022/12/28 02:41:12;;;;;;;;;11.80;10.80;;;;;8.40;46.94;99646.44;6238658;27;96904;-61
2022/12/28 02:50:04;;;;;;;;;11.80;11.00;;;;;8.27;47.16;99639.00;6276956;27;96254;-62
2022/12/28 02:51:32;;;;;;;;;12.00;10.00;;;;;8.16;47.33;99637.63;6169375;27;96626;-61
2022/12/28 02:59:22;;;;;;;;;10.00;9.00;;;;;8.12;47.17;99632.84;6241133;28;96534;-60
2022/12/28 03:02:43;;;;;;;;;8.00;7.60;;;;;8.09;47.31;99617.09;6217343;28;97676;-61
2022/12/28 03:09:28;;;;;;;;;10.50;9.00;;;;;7.96;47.41;99603.53;6263573;27;96224;-61
2022/12/28 03:12:39;;;;;;;;;10.00;9.20;;;;;7.93;47.43;99595.81;6275588;27;96227;-62
2022/12/28 03:15:42;;;;;;;;;8.00;8.00;;;;;7.92;47.23;99586.09;6250454;27;96219;-61
2022/12/28 03:32:36;;;;;;;;;9.00;9.00;;;;;7.81;47.41;99577.53;6170525;27;97092;-61
2022/12/28 03:35:46;;;;;;;;;9.20;8.20;;;;;7.75;47.37;99578.28;6213429;27;96540;-61
2022/12/28 03:39:03;;;;;;;;;11.00;10.40;;;;;7.75;47.35;99569.38;6249242;27;98868;-61
2022/12/28 03:45:42;;;;;;;;;8.00;8.00;;;;;7.74;47.45;99586.50;6231009;27;96688;-61
2022/12/28 03:48:51;;;;;;;;;10.60;9.60;;;;;7.72;47.25;99584.00;6169646;28;96825;-60
2022/12/28 03:51:56;;;;;;;;;9.00;8.00;;;;;7.69;47.58;99584.38;6213564;27;96306;-60
2022/12/28 03:55:01;;;;;;;;;10.00;8.25;;;;;7.66;47.59;99591.97;6251366;27;96220;-61
2022/12/28 03:58:23;;;;;;;;;7.00;6.00;;;;;7.64;47.49;99597.53;6273724;27;96443;-61
2022/12/28 04:01:27;;;;;;;;;8.40;7.60;;;;;7.61;47.54;99595.22;6200802;28;96604;-60
2022/12/28 04:04:31;;;;;;;;;9.20;8.60;;;;;7.58;47.50;99590.22;6215798;27;98958;-60
2022/12/28 04:07:35;;;;;;;;;8.33;8.33;;;;;7.50;47.61;99568.00;6253117;27;96212;-62
2022/12/28 04:10:40;;;;;;;;;8.00;8.00;;;;;7.51;47.49;99583.94;6194989;27;99079;-61
2022/12/28 04:13:44;;;;;;;;;7.60;7.60;;;;;7.51;47.55;99583.09;6261526;27;96986;-61
2022/12/28 04:16:50;;;;;;;;;7.00;7.00;;;;;7.51;47.42;99577.72;6174738;27;96632;-63
2022/12/28 04:19:55;;;;;;;;;11.00;11.00;;;;;7.57;47.38;99585.03;6190725;28;96448;-62
2022/12/28 04:22:58;;;;;;;;;7.40;7.40;;;;;7.56;47.17;99578.00;6175108;27;96875;-63
2022/12/28 04:26:06;;;;;;;;;7.40;7.40;;;;;7.56;47.28;99578.00;6191585;27;97091;-62
2022/12/28 04:29:09;;;;;;;;;8.20;7.20;;;;;7.52;47.20;99572.19;6223196;27;96396;-62
2022/12/28 04:32:17;;;;;;;;;6.00;6.00;;;;;7.53;47.00;99564.94;6282297;27;96176;-61
2022/12/28 04:35:21;;;;;;;;;7.60;7.00;;;;;7.54;46.89;99571.97;6251571;27;96385;-62
2022/12/28 04:38:25;;;;;;;;;8.80;7.20;;;;;7.56;46.93;99575.31;6256246;27;96212;-61
2022/12/28 04:41:30;;;;;;;;;7.00;6.40;;;;;7.60;46.76;99571.25;6293720;27;98330;-62
2022/12/28 04:44:34;;;;;;;;;6.00;6.00;;;;;7.59;46.72;99561.53;6257977;27;96313;-61
2022/12/28 04:47:37;;;;;;;;;8.40;7.60;;;;;7.64;46.60;99556.44;6191331;27;97774;-61
2022/12/28 04:50:41;;;;;;;;;9.80;9.20;;;;;7.65;46.39;99555.41;6266314;27;96788;-61
2022/12/28 04:53:45;;;;;;;;;7.80;7.00;;;;;7.62;46.34;99553.13;6229976;27;96200;-61
2022/12/28 04:56:49;;;;;;;;;9.00;7.25;;;;;7.63;46.21;99555.59;6233183;27;98477;-61
2022/12/28 04:59:53;;;;;;;;;5.80;5.80;;;;;7.57;46.02;99534.91;6235476;27;96735;-62
2022/12/28 05:02:58;;;;;;;;;5.00;5.00;;;;;7.58;45.96;99528.50;6218611;27;96232;-62
2022/12/28 05:06:02;;;;;;;;;7.00;7.00;;;;;7.54;45.55;99519.16;6277623;27;96444;-61
2022/12/28 05:09:06;;;;;;;;;6.60;6.60;;;;;7.60;45.59;99531.00;6242832;27;96542;-61
2022/12/28 05:12:10;;;;;;;;;5.75;5.00;;;;;7.56;45.60;99529.72;6204954;27;98367;-62
2022/12/28 05:15:14;;;;;;;;;7.00;6.00;;;;;7.54;45.70;99537.94;6191363;27;97661;-62
2022/12/28 05:18:17;;;;;;;;;6.20;5.80;;;;;7.60;45.32;99541.72;6190442;27;98531;-62
2022/12/28 05:21:22;;;;;;;;;5.80;5.80;;;;;7.59;45.45;99530.16;6181720;28;96465;-62
2022/12/28 05:24:25;;;;;;;;;3.75;3.75;;;;;7.58;45.15;99524.97;6185200;27;96212;-62
2022/12/28 05:27:30;;;;;;;;;6.00;6.00;;;;;7.58;45.04;99525.81;6184797;27;99176;-61
2022/12/28 05:30:33;;;;;;;;;7.00;7.00;;;;;7.53;45.04;99530.06;6187732;27;96196;-63
2022/12/28 05:33:37;;;;;;;;;6.00;5.40;;;;;7.47;45.13;99528.97;6187367;27;96494;-63
2022/12/28 05:36:40;;;;;;;;;6.60;6.00;;;;;7.49;45.09;99531.47;6186372;27;96644;-62
2022/12/28 05:39:44;;;;;;;;;7.00;7.00;;;;;7.52;45.08;99528.44;6178562;27;96680;-63
2022/12/28 05:42:48;;;;;;;;;4.00;4.00;;;;;7.51;45.02;99510.66;6187824;27;96426;-63
2022/12/28 05:45:53;;;;;;;;;6.00;5.00;;;;;7.52;44.87;99520.38;6210632;27;96879;-62
2022/12/28 05:48:57;;;;;;;;;6.00;5.00;;;;;7.56;44.77;99519.81;6173841;27;96396;-61
2022/12/28 05:52:01;;;;;;;;;6.00;5.00;;;;;7.57;44.83;99520.66;6192913;27;96657;-62
2022/12/28 05:55:04;;;;;;;;;8.00;8.00;;;;;7.55;44.65;99522.66;6187023;28;97516;-62
2022/12/28 05:58:09;;;;;;;;;8.00;8.00;;;;;7.49;44.59;99520.72;6187722;27;98356;-61
2022/12/28 06:01:14;;;;;;;;;7.00;6.00;;;;;7.55;44.40;99511.94;6184785;27;96761;-62
2022/12/28 06:04:20;;;;;;;;;9.00;9.00;;;;;7.60;44.28;99513.06;6179710;27;96944;-63
2022/12/28 06:07:24;;;;;;;;;7.00;6.40;;;;;7.57;44.48;99505.38;6188212;27;96352;-62
2022/12/28 06:10:27;;;;;;;;;5.00;5.00;;;;;7.49;44.22;99485.84;6183776;27;96602;-62
2022/12/28 06:13:33;;;;;;;;;6.40;6.40;;;;;7.60;44.43;99505.00;6184610;27;96297;-62
2022/12/28 06:16:37;;;;;;;;;6.00;5.00;;;;;7.52;44.56;99501.59;6195448;27;96627;-62
2022/12/28 06:19:41;;;;;;;;;7.00;6.80;;;;;7.59;44.70;99497.97;6199570;27;96912;-60
2022/12/28 06:22:44;;;;;;;;;7.00;6.00;;;;;7.59;44.65;99499.81;6232002;27;96227;-60
2022/12/28 06:25:47;;;;;;;;;7.40;6.40;;;;;7.50;45.11;99498.25;6200569;27;96774;-62
2022/12/28 06:28:52;;;;;;;;;7.20;7.20;;;;;7.51;45.09;99497.25;6192256;28;96204;-61
2022/12/28 06:31:59;;;;;;;;;9.00;8.00;;;;;7.47;45.33;99498.63;6189510;27;96213;-61
2022/12/28 06:35:02;;;;;;;;;8.00;7.00;;;;;7.50;45.39;99491.03;6180311;27;96381;-62
2022/12/28 06:38:06;;;;;;;;;7.00;6.00;;;;;7.57;45.18;99486.59;6174510;27;97367;-61
2022/12/28 06:41:11;;;;;;;;;8.75;8.00;;;;;7.63;45.20;99490.34;6198576;27;96643;-62
2022/12/28 06:44:18;;;;;;;;;6.00;4.00;;;;;7.71;45.22;99487.59;6193124;27;97103;-63
2022/12/28 06:47:21;;;;;;;;;6.80;6.00;;;;;7.58;45.52;99490.09;6181534;27;96366;-61
2022/12/28 06:50:24;;;;;;;;;7.00;6.75;;;;;7.64;45.52;99492.03;6252701;27;98365;-62
2022/12/28 06:53:30;;;;;;;;;7.40;7.00;;;;;7.67;45.59;99486.31;6182020;27;96267;-62
2022/12/28 06:56:35;;;;;;;;;8.00;7.00;;;;;7.65;45.42;99475.75;6191535;27;96747;-63
2022/12/28 06:59:40;;;;;;;;;7.00;7.00;;;;;7.77;45.40;99482.28;6190301;27;96887;-62
2022/12/28 07:02:43;;;;;;;;;8.00;7.00;;;;;7.86;45.35;99466.06;6209768;27;96709;-61
2022/12/28 07:05:46;;;;;;;;;8.00;8.00;;;;;8.03;45.07;99472.84;6191791;28;96364;-60
2022/12/28 07:08:50;;;;;;;;;6.60;6.60;;;;;8.02;44.99;99466.63;6190130;27;96478;-61
2022/12/28 07:11:54;;;;;;;;;5.60;5.60;;;;;8.14;44.78;99461.59;6187080;27;96445;-62
2022/12/28 07:14:59;;;;;;;;;8.40;8.40;;;;;8.32;44.46;99455.78;6191189;27;96194;-61
2022/12/28 07:18:02;;;;;;;;;7.00;6.00;;;;;8.40;43.84;99437.72;6203192;27;96105;-62
2022/12/28 07:21:09;;;;;;;;;6.00;5.00;;;;;8.70;43.38;99447.22;6181005;28;97067;-62
2022/12/28 07:24:12;;;;;;;;;6.00;6.00;;;;;9.13;42.73;99444.41;6168606;27;96567;-61
2022/12/28 07:27:16;;;;;;;;;6.80;6.80;;;;;9.62;41.55;99438.00;6200550;27;96452;-63
2022/12/28 07:30:20;;;;;;;;;10.40;9.80;;;;;10.29;40.52;99436.09;6189776;27;96924;-63
2022/12/28 07:33:24;;;;;;;;;9.25;8.75;;;;;11.02;38.83;99436.00;6191000;27;97705;-62
2022/12/28 07:36:30;;;;;;;;;10.20;9.80;;;;;11.68;37.48;99425.78;6192636;27;96283;-61
2022/12/28 07:39:34;;;;;;;;;10.00;10.00;;;;;12.83;35.57;99424.56;6191340;27;96257;-63
2022/12/28 07:42:37;;;;;;;;;8.00;7.60;;;;;14.11;33.50;99434.28;6248536;27;96720;-62
2022/12/28 07:45:42;;;;;;;;;7.20;6.80;;;;;15.49;30.94;99428.31;6175956;27;96814;-63
2022/12/28 07:48:46;;;;;;;;;10.40;10.00;;;;;16.01;29.78;99426.38;6168739;27;96327;-63
2022/12/28 07:51:50;;;;;;;;;13.00;12.00;;;;;16.42;29.53;99431.47;6168699;27;96325;-61
2022/12/28 07:54:53;;;;;;;;;10.00;9.60;;;;;17.49;27.29;99422.19;6171151;27;96523;-62
2022/12/28 07:57:56;;;;;;;;;7.40;7.00;;;;;18.05;27.59;99401.84;6172084;28;98983;-62
2022/12/28 08:01:06;;;;;;;;;6.00;6.00;;;;;18.27;26.98;99429.09;6173977;27;96679;-65
2022/12/28 08:04:14;;;;;;;;;6.80;5.40;;;;;17.71;27.47;99431.22;6181396;27;97333;-61
2022/12/28 08:07:19;;;;;;;;;7.00;6.00;;;;;17.54;27.32;99422.25;6187386;28;96638;-62
2022/12/28 08:10:22;;;;;;;;;6.00;6.00;;;;;17.88;27.66;99422.97;6189044;27;96562;-62
2022/12/28 08:13:26;;;;;;;;;6.00;6.00;;;;;17.90;27.25;99413.44;6176041;27;98098;-62
2022/12/28 08:16:32;;;;;;;;;6.00;5.00;;;;;17.72;27.32;99413.78;6185801;27;96361;-62
2022/12/28 08:19:36;;;;;;;;;6.00;6.00;;;;;17.20;27.91;99411.44;6192545;27;96195;-63
2022/12/28 08:22:39;;;;;;;;;6.00;5.00;;;;;16.68;28.44;99404.69;6188036;27;97718;-61
2022/12/28 08:25:42;;;;;;;;;7.60;7.00;;;;;16.14;29.02;99414.34;6196671;27;96615;-61
2022/12/28 08:28:48;;;;;;;;;6.00;6.00;;;;;15.56;29.46;99407.28;6220924;27;96454;-62
2022/12/28 08:31:53;;;;;;;;;8.00;7.00;;;;;15.20;30.62;99410.31;6193578;28;96310;-61
2022/12/28 08:34:56;;;;;;;;;7.60;6.00;;;;;14.94;31.04;99411.63;6226170;27;96722;-60
2022/12/28 08:37:59;;;;;;;;;7.40;6.40;;;;;14.71;31.30;99415.97;6219036;27;96475;-61
2022/12/28 08:41:06;;;;;;;;;7.00;7.00;;;;;14.68;31.51;99413.75;6204793;27;96612;-61
2022/12/28 08:44:10;;;;;;;;;9.00;9.00;;;;;14.38;31.87;99399.44;6218962;27;96402;-62
2022/12/28 08:47:14;;;;;;;;;7.00;7.00;;;;;14.37;31.60;99411.34;6266938;27;96496;-61
2022/12/28 08:50:17;;;;;;;;;7.00;7.00;;;;;14.64;31.54;99411.75;6241004;27;96216;-61
2022/12/28 08:53:23;;;;;;;;;9.80;8.00;;;;;15.12;30.87;99408.78;6193915;27;97504;-62
2022/12/28 08:56:29;;;;;;;;;10.00;8.00;;;;;15.85;30.01;99416.28;6196933;28;96776;-62
2022/12/28 08:59:32;;;;;;;;;9.00;8.00;;;;;16.41;29.08;99416.22;6196950;28;96301;-62
2022/12/28 09:02:37;;;;;;;;;8.00;7.50;;;;;16.81;28.49;99413.34;6188736;28;96270;-62
2022/12/28 09:05:40;;;;;;;;;10.00;9.00;;;;;16.97;28.43;99410.84;6186896;28;96342;-62
2022/12/28 09:08:44;;;;;;;;;8.00;8.00;;;;;16.60;28.34;99421.44;6189615;28;96682;-61
2022/12/28 09:12:07;;;;;;;;;7.20;7.20;;;;;16.26;28.93;99409.69;6195393;28;96209;-61
2022/12/28 09:15:11;;;;;;;;;7.00;7.00;;;;;15.91;29.22;99397.09;6195804;28;96592;-62
2022/12/28 09:18:16;;;;;;;;;7.00;7.00;;;;;15.64;29.67;99400.66;6190704;28;97065;-61
2022/12/28 09:21:20;;;;;;;;;6.20;6.00;;;;;16.02;29.08;99395.41;6189892;28;97099;-61
2022/12/28 09:24:24;;;;;;;;;9.25;7.00;;;;;16.63;28.85;99391.00;6196613;28;98129;-61
2022/12/28 09:27:27;;;;;;;;;7.00;6.00;;;;;17.55;27.36;99391.16;6197664;28;96793;-61
2022/12/28 09:30:30;;;;;;;;;7.00;6.60;;;;;18.09;26.97;99395.63;6175264;28;96857;-62
2022/12/28 09:37:16;;;;;;;;;8.50;8.00;;;;;18.70;25.88;99396.19;6177391;28;96319;-65
2022/12/28 09:40:21;;;;;;;;;9.40;8.00;;;;;18.98;25.76;99386.78;6198093;28;96608;-61
2022/12/28 09:43:26;;;;;;;;;8.00;7.00;;;;;18.97;25.00;99374.22;6193594;28;96396;-62
2022/12/28 09:46:33;;;;;;;;;7.00;6.00;;;;;19.61;24.91;99387.66;6184006;28;97570;-64
2022/12/28 09:49:44;;;;;;;;;7.75;7.00;;;;;20.02;24.58;99396.81;6185721;27;96406;-63
2022/12/28 09:52:57;;;;;;;;;6.40;6.00;;;;;19.87;24.10;99376.53;6180022;28;96274;-65
2022/12/28 09:56:04;;;;;;;;;4.75;4.00;;;;;19.60;24.45;99369.59;6173128;28;96841;-63
2022/12/28 09:59:14;;;;;;;;;4.75;4.75;;;;;19.26;25.05;99366.44;6187921;28;96542;-61
2022/12/28 10:02:20;;;;;;;;;5.00;4.00;;;;;19.00;24.97;99369.06;6182658;28;96213;-61
2022/12/28 10:05:26;;;;;;;;;6.00;6.00;;;;;18.28;25.77;99371.50;6182150;28;96968;-61
2022/12/28 10:08:30;;;;;;;;;7.00;6.60;;;;;18.00;26.33;99369.88;6184540;28;96269;-63
2022/12/28 10:11:39;;;;;;;;;7.00;7.00;;;;;17.60;26.76;99362.09;6183484;28;96904;-62
2022/12/28 10:14:46;;;;;;;;;9.00;7.00;;;;;17.27;27.01;99356.75;6185512;28;96539;-60
2022/12/28 10:17:49;;;;;;;;;6.00;6.00;;;;;17.09;27.24;99355.19;6174120;28;96442;-60
2022/12/28 10:20:55;;;;;;;;;7.00;6.20;;;;;16.76;27.92;99358.78;6181694;28;96060;-60
2022/12/28 10:23:59;;;;;;;;;7.25;6.00;;;;;16.29;28.60;99357.50;6173345;28;96275;-61
2022/12/28 10:27:25;;;;;;;;;7.00;7.00;;;;;15.75;29.25;99350.84;6183619;28;96963;-62
2022/12/28 10:30:28;;;;;;;;;6.60;6.00;;;;;15.34;29.83;99352.75;6178881;27;96486;-61
2022/12/28 10:33:32;;;;;;;;;7.00;6.20;;;;;14.85;30.68;99340.59;6184404;28;96464;-61
2022/12/28 10:36:37;;;;;;;;;8.20;7.80;;;;;14.51;31.38;99346.88;6164626;28;97185;-60
2022/12/28 10:39:49;;;;;;;;;8.80;8.80;;;;;14.24;31.89;99349.16;6172120;28;96312;-59
2022/12/28 10:42:55;;;;;;;;;8.60;7.00;;;;;13.86;32.49;99342.25;6167201;27;96997;-60
2022/12/28 10:46:01;;;;;;;;;7.00;6.25;;;;;13.57;32.83;99340.41;6176901;28;98376;-59
2022/12/28 10:49:05;;;;;;;;;6.00;6.00;;;;;13.32;33.20;99326.16;6182115;28;96494;-59
2022/12/28 10:52:20;;;;;;;;;7.00;6.00;;;;;13.13;33.53;99327.25;6177768;28;96868;-63
2022/12/28 10:55:28;;;;;;;;;7.00;6.50;;;;;12.97;34.04;99321.34;6184024;28;96463;-60
2022/12/28 10:58:33;;;;;;;;;7.75;7.00;;;;;12.76;34.21;99319.09;6190943;27;96219;-60
2022/12/28 11:01:37;;;;;;;;;8.00;7.60;;;;;12.73;34.26;99303.31;6191300;28;96257;-60
2022/12/28 11:04:53;;;;;;;;;7.00;6.40;;;;;12.68;34.58;99308.59;6178858;28;96756;-59
2022/12/28 11:08:06;;;;;;;;;6.00;5.00;;;;;12.63;34.61;99296.78;6168012;28;96212;-60
2022/12/28 11:11:19;;;;;;;;;7.25;7.00;;;;;12.57;34.55;99283.09;6179000;28;96430;-61
2022/12/28 11:14:31;;;;;;;;;8.20;8.20;;;;;12.41;34.54;99277.47;6165951;28;96615;-60
2022/12/28 11:17:36;;;;;;;;;8.00;8.00;;;;;12.40;34.63;99268.53;6180299;28;96733;-60
2022/12/28 11:20:44;;;;;;;;;10.00;10.00;;;;;12.24;35.04;99257.47;6166868;28;96454;-61
2022/12/28 11:23:51;;;;;;;;;7.80;7.80;;;;;12.19;35.00;99257.31;6187501;28;96377;-60
2022/12/28 11:26:54;;;;;;;;;7.00;7.00;;;;;12.17;34.84;99249.41;6174866;28;97221;-59
2022/12/28 11:29:59;;;;;;;;;10.00;8.00;;;;;12.17;34.86;99248.59;6169749;28;98380;-59
2022/12/28 11:33:08;;;;;;;;;9.00;8.00;;;;;11.99;35.32;99247.50;6189761;28;98337;-60
2022/12/28 11:36:15;;;;;;;;;8.40;8.40;;;;;12.03;35.25;99237.06;6191143;28;96289;-61
2022/12/28 11:39:42;;;;;;;;;9.00;8.00;;;;;12.08;35.52;99229.13;6190440;28;96551;-59
2022/12/28 11:42:54;;;;;;;;;9.00;9.00;;;;;12.31;35.57;99231.19;6189178;28;97447;-61
2022/12/28 11:45:59;;;;;;;;;7.00;6.60;;;;;12.26;35.53;99217.53;6191356;28;96354;-60
2022/12/28 11:49:05;;;;;;;;;10.00;9.00;;;;;12.33;35.35;99227.22;6190796;28;96531;-59
2022/12/28 11:52:43;;;;;;;;;9.60;9.00;;;;;12.23;35.33;99213.38;6188453;28;96307;-60
2022/12/28 11:56:07;;;;;;;;;6.80;6.80;;;;;12.28;35.24;99215.41;6148657;28;97222;-60
2022/12/28 11:59:23;;;;;;;;;9.40;8.00;;;;;12.12;35.43;99217.66;6178812;28;96842;-61
2022/12/28 12:02:40;;;;;;;;;7.00;6.00;;;;;12.14;35.60;99206.63;6183234;28;96195;-60
2022/12/28 12:05:53;;;;;;;;;7.25;7.25;;;;;12.21;35.41;99203.84;6185892;28;96273;-59
2022/12/28 12:08:56;;;;;;;;;8.00;7.40;;;;;12.19;35.32;99204.06;6181295;28;96956;-60
2022/12/28 12:12:02;;;;;;;;;9.00;9.00;;;;;12.16;35.38;99191.00;6187959;28;97550;-59
2022/12/28 12:15:16;;;;;;;;;9.00;7.40;;;;;12.21;35.25;99193.03;6187261;28;96510;-59
2022/12/28 12:18:22;;;;;;;;;10.00;9.20;;;;;12.23;35.24;99183.66;6187527;28;97207;-60
2022/12/28 12:21:33;;;;;;;;;10.00;9.40;;;;;12.40;35.66;99181.19;6184846;28;96963;-60
2022/12/28 12:24:45;;;;;;;;;11.40;11.00;;;;;12.58;35.26;99183.84;6175273;27;96314;-60
2022/12/28 12:27:55;;;;;;;;;9.80;8.40;;;;;12.81;34.70;99172.31;6187597;28;96231;-59
2022/12/28 12:30:59;;;;;;;;;10.40;9.40;;;;;13.60;33.74;99139.44;6184529;28;96619;-61
2022/12/28 12:34:12;;;;;;;;;7.60;7.60;;;;;15.44;31.30;99154.59;6185667;27;96973;-61
2022/12/28 12:37:47;;;;;;;;;7.40;7.40;;;;;17.29;28.18;99158.41;6183818;27;96807;-60
2022/12/28 12:41:05;;;;;;;;;8.00;7.00;;;;;18.74;26.32;99151.47;6169153;28;98428;-61
2022/12/28 12:44:23;;;;;;;;;6.00;6.00;;;;;19.64;25.27;99151.91;6189085;28;96887;-58
2022/12/28 12:47:53;;;;;;;;;7.60;7.00;;;;;20.05;24.84;99139.81;6171683;28;97160;-60
2022/12/28 12:51:08;;;;;;;;;7.00;6.20;;;;;19.74;25.19;99135.50;6179273;28;96877;-60
2022/12/28 12:54:35;;;;;;;;;6.00;6.00;;;;;19.46;25.29;99128.66;6184878;28;96252;-60
2022/12/28 12:57:51;;;;;;;;;6.40;6.40;;;;;19.24;25.38;99128.91;6189803;28;98083;-60
2022/12/28 13:01:14;;;;;;;;;8.40;8.00;;;;;19.02;26.29;99125.56;6191686;28;96429;-60
2022/12/28 13:04:21;;;;;;;;;6.60;6.20;;;;;18.88;26.31;99113.53;6191670;28;96992;-60
2022/12/28 13:07:27;;;;;;;;;7.75;7.00;;;;;18.82;26.18;99112.69;6190074;28;96609;-61
2022/12/28 13:10:34;;;;;;;;;6.40;6.40;;;;;18.68;26.69;99110.75;6190492;28;96808;-60
2022/12/28 13:13:40;;;;;;;;;9.00;8.50;;;;;18.63;26.69;99113.47;6191152;28;96772;-60
2022/12/28 13:16:47;;;;;;;;;8.00;8.00;;;;;18.34;27.25;99105.69;6188964;27;96468;-60
2022/12/28 13:19:51;;;;;;;;;9.00;8.00;;;;;17.76;27.90;99104.00;6186144;27;96294;-60
2022/12/28 13:22:55;;;;;;;;;8.00;8.00;;;;;17.11;28.70;99115.19;6188966;28;97239;-59
2022/12/28 13:26:00;;;;;;;;;6.00;6.00;;;;;16.44;29.73;99108.19;6190538;27;96208;-60
2022/12/28 13:29:09;;;;;;;;;5.75;5.00;;;;;15.98;30.35;99109.50;6179383;27;98342;-60
2022/12/28 13:32:26;;;;;;;;;5.00;5.00;;;;;15.44;31.11;99102.97;6166157;27;96204;-60
2022/12/28 13:35:34;;;;;;;;;6.25;5.25;;;;;15.04;32.01;99103.13;6171038;27;97899;-63
2022/12/28 13:38:38;;;;;;;;;9.00;7.40;;;;;14.51;32.49;99097.25;6175196;27;97009;-59
2022/12/28 13:41:49;;;;;;;;;7.40;7.00;;;;;14.39;33.22;99096.47;6171359;27;97199;-60
2022/12/28 13:44:55;;;;;;;;;7.00;6.00;;;;;13.99;33.54;99072.03;6166180;27;97332;-58
2022/12/28 13:48:02;;;;;;;;;7.00;7.00;;;;;13.92;33.93;99076.75;6168772;27;96554;-60
2022/12/28 13:51:09;;;;;;;;;6.00;6.00;;;;;13.75;34.31;99066.66;6167102;27;96509;-60
2022/12/28 13:54:13;;;;;;;;;7.60;6.60;;;;;13.59;34.15;99067.38;6169669;27;97527;-59
2022/12/28 13:57:18;;;;;;;;;5.50;5.00;;;;;13.33;34.71;99062.44;6179877;27;96144;-61
2022/12/28 14:00:45;;;;;;;;;8.00;7.00;;;;;13.05;34.66;99046.84;6171480;27;97259;-59
2022/12/28 14:03:58;;;;;;;;;6.00;5.40;;;;;13.28;34.43;99046.91;6175520;27;96873;-62
2022/12/28 14:07:18;;;;;;;;;7.25;6.00;;;;;13.36;34.25;99024.06;6170055;27;96824;-60
2022/12/28 14:10:23;;;;;;;;;6.60;6.60;;;;;13.52;33.71;99044.19;6173907;27;96308;-61
2022/12/28 14:13:27;;;;;;;;;4.80;3.60;;;;;13.56;33.57;99040.75;6173511;27;96791;-62
2022/12/28 14:16:31;;;;;;;;;6.25;6.25;;;;;13.53;33.70;99021.47;6174057;28;96703;-62
2022/12/28 14:19:36;;;;;;;;;6.00;6.00;;;;;13.43;33.97;99032.88;6170254;27;96938;-61
2022/12/28 14:22:40;;;;;;;;;4.00;3.50;;;;;13.28;34.10;99038.78;6160936;28;96646;-61
2022/12/28 14:25:44;;;;;;;;;7.00;7.00;;;;;13.13;34.68;99037.59;6168249;27;96712;-62
2022/12/28 14:28:51;;;;;;;;;5.60;5.60;;;;;12.96;35.00;99040.13;6170895;27;96637;-62
2022/12/28 14:31:57;;;;;;;;;6.60;6.60;;;;;12.80;35.08;99041.66;6165526;28;96664;-59
2022/12/28 14:35:02;;;;;;;;;7.00;7.00;;;;;12.65;35.58;99053.94;6167334;27;96426;-59
2022/12/28 14:38:05;;;;;;;;;7.00;6.50;;;;;12.61;35.61;99048.16;6170279;28;97016;-60
2022/12/28 14:41:18;;;;;;;;;6.40;6.00;;;;;12.52;35.79;99049.53;6163830;28;98403;-60
2022/12/28 14:44:28;;;;;;;;;5.00;5.00;;;;;12.39;36.03;99052.44;6174060;28;96809;-63
2022/12/28 14:47:44;;;;;;;;;9.00;7.00;;;;;12.21;36.37;99056.03;6172311;27;96254;-58
2022/12/28 14:50:57;;;;;;;;;9.00;8.00;;;;;12.11;36.54;99058.44;6167153;28;96709;-60
2022/12/28 14:54:15;;;;;;;;;7.60;7.60;;;;;12.07;36.44;99055.34;6166532;27;96294;-60
2022/12/28 14:57:24;;;;;;;;;9.00;8.00;;;;;12.00;36.74;99041.09;6171301;27;96958;-59
2022/12/28 15:00:30;;;;;;;;;7.00;7.00;;;;;11.83;37.03;99039.22;6171321;27;96389;-59
2022/12/28 15:03:49;;;;;;;;;8.00;7.40;;;;;11.68;37.37;99047.66;6168494;28;96557;-60
2022/12/28 15:06:54;;;;;;;;;11.00;9.25;;;;;11.59;37.36;99049.84;6178880;28;96426;-61
2022/12/28 15:09:57;;;;;;;;;7.00;7.00;;;;;11.54;37.72;99036.19;6189314;27;96439;-62
2022/12/28 15:13:01;;;;;;;;;8.25;8.00;;;;;11.51;37.72;99036.66;6176908;27;96838;-59
2022/12/28 15:16:05;;;;;;;;;8.00;8.00;;;;;11.49;37.80;99037.91;6169647;27;96387;-58